Schneifelwetter: Wetterstation Hallschlag, 537 m . NN
Wetterdaten: Dienstag, 29.11.2011
Datum Zeit Temp. A. Feuchte A. Luftdruck Regen Wind Richtung Richtung Sonnenschein Helligkeit T Regen Taupunkt Windchill
29.11.2011 00:00 -1,2 C 99 % 1020 hPa 0,0 l/m 12,8 km/h (3 Bft) W-SW22.5 255 0 min 0 lux 0 min -1,3 C -7,0 C
29.11.2011 00:15 -1,1 C 99 % 1020 hPa 0,0 l/m 12,9 km/h (3 Bft) W 270 0 min 0 lux 0 min -1,2 C -6,9 C
29.11.2011 00:30 -1,0 C 99 % 1020 hPa 0,0 l/m 13,6 km/h (3 Bft) W 270 0 min 0 lux 0 min -1,1 C -7,3 C
29.11.2011 00:45 -0,3 C 99 % 1020 hPa 0,0 l/m 14,4 km/h (3 Bft) W 270 0 min 0 lux 0 min -0,4 C -7,0 C
29.11.2011 01:00 0,2 C 99 % 1019 hPa 0,0 l/m 18,7 km/h (3 Bft) W-SW22.5 255 0 min 0 lux 0 min 0,1 C -8,8 C
29.11.2011 01:15 0,7 C 99 % 1019 hPa 0,0 l/m 20,6 km/h (4 Bft) W-SW45 255 0 min 0 lux 0 min 0,6 C -9,0 C
29.11.2011 01:30 1,1 C 99 % 1019 hPa 0,0 l/m 17,1 km/h (3 Bft) SW45 235 0 min 0 lux 0 min 1,0 C -6,8 C
29.11.2011 01:45 1,2 C 99 % 1019 hPa 0,0 l/m 15,6 km/h (3 Bft) W-SW45 250 0 min 0 lux 0 min 1,1 C -5,9 C
29.11.2011 02:00 1,4 C 99 % 1019 hPa 0,0 l/m 24,5 km/h (4 Bft) W-SW45 255 0 min 0 lux 0 min 1,3 C -9,6 C
29.11.2011 02:15 1,5 C 99 % 1019 hPa 0,0 l/m 28,1 km/h (4 Bft) W-SW22.5 255 0 min 0 lux 0 min 1,4 C -10,7 C
29.11.2011 02:30 1,5 C 99 % 1019 hPa 0,0 l/m 20,7 km/h (4 Bft) W-SW45 250 0 min 0 lux 0 min 1,4 C -8,0 C
29.11.2011 02:45 1,5 C 99 % 1019 hPa 0,0 l/m 21,6 km/h (4 Bft) SW45 230 0 min 0 lux 0 min 1,4 C -8,4 C
29.11.2011 03:00 1,4 C 99 % 1019 hPa 0,0 l/m 24,3 km/h (4 Bft) W-SW22.5 240 0 min 0 lux 0 min 1,3 C -9,6 C
29.11.2011 03:15 1,4 C 99 % 1019 hPa 0,0 l/m 16,5 km/h (3 Bft) SW45 225 0 min 0 lux 0 min 1,3 C -6,1 C
29.11.2011 03:30 1,5 C 99 % 1018 hPa 0,0 l/m 20,6 km/h (4 Bft) SW22.5 230 0 min 0 lux 0 min 1,4 C -8,0 C
29.11.2011 03:45 1,5 C 99 % 1018 hPa 0,0 l/m 14,4 km/h (3 Bft) W-SW45 245 0 min 0 lux 0 min 1,4 C -4,8 C
29.11.2011 04:00 1,5 C 99 % 1018 hPa 0,0 l/m 14,5 km/h (3 Bft) W-SW45 250 0 min 0 lux 0 min 1,4 C -4,9 C
29.11.2011 04:15 1,6 C 99 % 1018 hPa 0,0 l/m 18,8 km/h (3 Bft) W-SW45 245 0 min 0 lux 0 min 1,5 C -7,0 C
29.11.2011 04:30 1,6 C 99 % 1018 hPa 0,0 l/m 16,6 km/h (3 Bft) SW45 235 0 min 0 lux 0 min 1,5 C -5,9 C
29.11.2011 04:45 1,5 C 99 % 1018 hPa 0,0 l/m 25,7 km/h (4 Bft) SW22.5 215 0 min 0 lux 0 min 1,4 C -9,9 C
29.11.2011 05:00 1,5 C 99 % 1018 hPa 0,0 l/m 19,5 km/h (3 Bft) W-SW45 255 0 min 0 lux 0 min 1,4 C -7,5 C
29.11.2011 05:15 1,4 C 99 % 1018 hPa 0,0 l/m 14,8 km/h (3 Bft) W-SW22.5 250 0 min 0 lux 0 min 1,3 C -5,2 C
29.11.2011 05:30 1,3 C 99 % 1018 hPa 0,0 l/m 12,3 km/h (3 Bft) W-SW 250 0 min 0 lux 0 min 1,2 C -3,7 C
29.11.2011 05:45 1,2 C 99 % 1018 hPa 0,0 l/m 11,2 km/h (2 Bft) W-SW 255 0 min 0 lux 0 min 1,1 C -3,0 C
29.11.2011 06:00 1,2 C 99 % 1018 hPa 0,0 l/m 13,1 km/h (3 Bft) W-SW22.5 250 0 min 0 lux 0 min 1,1 C -4,4 C
29.11.2011 06:15 1,2 C 99 % 1018 hPa 0,0 l/m 10,1 km/h (2 Bft) W-SW 255 0 min 0 lux 0 min 1,1 C -2,2 C
29.11.2011 06:30 1,1 C 99 % 1017 hPa 0,0 l/m 8,1 km/h (2 Bft) S 180 0 min 0 lux 0 min 1,0 C -0,6 C
29.11.2011 06:45 1,1 C 99 % 1018 hPa 0,0 l/m 9,8 km/h (2 Bft) SW22.5 230 0 min 0 lux 0 min 1,0 C -2,1 C
29.11.2011 07:00 1,1 C 99 % 1017 hPa 0,0 l/m 0,1 km/h (0 Bft) SW 235 0 min 0 lux 0 min 1,0 C 1,1 C
29.11.2011 07:15 1,0 C 99 % 1017 hPa 0,0 l/m 4,2 km/h (1 Bft) SW22.5 225 0 min 0 lux 0 min 0,9 C 1,0 C
29.11.2011 07:30 1,1 C 99 % 1017 hPa 0,0 l/m 8,8 km/h (2 Bft) W-SW22.5 250 0 min 0 lux 0 min 1,0 C -1,2 C
29.11.2011 07:45 1,1 C 99 % 1017 hPa 0,0 l/m 9,7 km/h (2 Bft) W-SW 245 0 min 0 lux 0 min 1,0 C -2,0 C
29.11.2011 08:01 1,1 C 99 % 1017 hPa 0,0 l/m 12,1 km/h (2 Bft) W 260 0 min 113 lux 0 min 1,0 C -3,8 C
29.11.2011 08:15 1,1 C 99 % 1017 hPa 0,0 l/m 10,3 km/h (2 Bft) W-SW 250 0 min 196 lux 0 min 1,0 C -2,5 C
29.11.2011 08:30 1,0 C 99 % 1017 hPa 0,0 l/m 12,5 km/h (3 Bft) W-SW22.5 250 0 min 678 lux 0 min 0,9 C -4,2 C
29.11.2011 08:45 1,2 C 99 % 1017 hPa 0,0 l/m 8,7 km/h (2 Bft) W-SW 245 0 min 1,24 klux 0 min 1,1 C -1,0 C
29.11.2011 09:00 1,3 C 99 % 1016 hPa 0,0 l/m 11,0 km/h (2 Bft) S22.5 170 0 min 1,40 klux 0 min 1,2 C -2,8 C
29.11.2011 09:16 1,2 C 99 % 1017 hPa 0,0 l/m 10,6 km/h (2 Bft) S45 170 0 min 2,04 klux 0 min 1,1 C -2,6 C
29.11.2011 09:31 1,3 C 99 % 1017 hPa 0,0 l/m 13,8 km/h (3 Bft) SW22.5 230 0 min 2,72 klux 0 min 1,2 C -4,7 C
29.11.2011 09:45 1,5 C 99 % 1017 hPa 0,0 l/m 13,2 km/h (3 Bft) S-SW22.5 200 0 min 3,39 klux 0 min 1,4 C -4,1 C
29.11.2011 10:00 1,8 C 99 % 1017 hPa 0,0 l/m 13,5 km/h (3 Bft) S-SW22.5 195 0 min 3,52 klux 0 min 1,7 C -3,9 C
29.11.2011 10:15 2,0 C 99 % 1016 hPa 0,0 l/m 17,7 km/h (3 Bft) S22.5 180 0 min 5,96 klux 0 min 1,9 C -6,0 C
29.11.2011 10:30 2,4 C 99 % 1016 hPa 0,0 l/m 18,1 km/h (3 Bft) SW45 230 0 min 9,2 klux 0 min 2,3 C -5,7 C
29.11.2011 10:46 2,5 C 99 % 1016 hPa 0,0 l/m 18,0 km/h (3 Bft) S-SW45 205 0 min 9,9 klux 0 min 2,4 C -5,5 C
29.11.2011 11:01 2,6 C 99 % 1016 hPa 0,0 l/m 18,0 km/h (3 Bft) S-SW45 210 0 min 9,2 klux 0 min 2,5 C -5,4 C
29.11.2011 11:15 2,8 C 99 % 1016 hPa 0,0 l/m 23,0 km/h (4 Bft) S-SW67.5 205 0 min 10,3 klux 0 min 2,7 C -7,2 C
29.11.2011 11:30 2,9 C 99 % 1016 hPa 0,0 l/m 27,8 km/h (4 Bft) S-SW45 210 0 min 13,5 klux 0 min 2,8 C -8,7 C
29.11.2011 11:45 3,1 C 99 % 1016 hPa 0,0 l/m 19,2 km/h (3 Bft) S45 185 0 min 18,3 klux 0 min 3,0 C -5,3 C
29.11.2011 12:00 3,1 C 99 % 1015 hPa 0,0 l/m 26,7 km/h (4 Bft) SW45 215 0 min 17,6 klux 0 min 3,0 C -8,1 C
29.11.2011 12:01 3,1 C 99 % 1015 hPa 0,0 l/m 26,7 km/h (4 Bft) SW45 215 0 min 17,6 klux 0 min 3,0 C -8,1 C
29.11.2011 12:16 3,2 C 97 % 1015 hPa 0,0 l/m 27,6 km/h (4 Bft) S-SW45 205 0 min 21,0 klux 0 min 2,8 C -8,2 C
29.11.2011 12:30 3,1 C 96 % 1015 hPa 0,0 l/m 27,5 km/h (4 Bft) S-SW45 195 0 min 19,8 klux 0 min 2,5 C -8,3 C
29.11.2011 12:45 3,1 C 96 % 1015 hPa 0,0 l/m 30,5 km/h (5 Bft) SW45 225 0 min 14,7 klux 0 min 2,5 C -9,2 C
29.11.2011 13:00 3,1 C 97 % 1015 hPa 0,0 l/m 27,8 km/h (4 Bft) SW45 220 0 min 13,8 klux 0 min 2,7 C -8,4 C
29.11.2011 13:16 3,4 C 97 % 1015 hPa 0,0 l/m 23,3 km/h (4 Bft) S-SW45 195 0 min 14,0 klux 0 min 3,0 C -6,5 C
29.11.2011 13:31 3,6 C 96 % 1015 hPa 0,0 l/m 22,5 km/h (4 Bft) S45 190 0 min 18,4 klux 0 min 3,0 C -6,0 C
29.11.2011 13:46 3,6 C 96 % 1015 hPa 0,0 l/m 31,9 km/h (5 Bft) SW45 225 0 min 11,0 klux 0 min 3,0 C -8,8 C
29.11.2011 14:00 3,6 C 96 % 1014 hPa 0,0 l/m 25,6 km/h (4 Bft) SW45 215 0 min 11,8 klux 0 min 3,0 C -7,0 C
29.11.2011 14:15 3,9 C 96 % 1014 hPa 0,0 l/m 21,5 km/h (4 Bft) SW45 215 0 min 31,7 klux 0 min 3,3 C -5,2 C
29.11.2011 14:30 3,9 C 96 % 1014 hPa 0,0 l/m 30,3 km/h (5 Bft) SW67.5 215 0 min 34,4 klux 0 min 3,3 C -8,0 C
29.11.2011 14:46 3,9 C 95 % 1014 hPa 0,0 l/m 29,6 km/h (5 Bft) SW45 235 0 min 27,7 klux 0 min 3,2 C -7,8 C
29.11.2011 15:01 3,9 C 95 % 1014 hPa 0,0 l/m 26,0 km/h (4 Bft) S-SW67.5 205 0 min 27,5 klux 0 min 3,2 C -6,8 C
29.11.2011 15:15 3,7 C 95 % 1014 hPa 0,0 l/m 28,6 km/h (4 Bft) S-SW45 200 0 min 18,3 klux 0 min 3,0 C -7,8 C
29.11.2011 15:30 3,5 C 96 % 1014 hPa 0,0 l/m 28,8 km/h (4 Bft) SW45 220 0 min 13,6 klux 0 min 2,9 C -8,1 C
29.11.2011 15:45 3,6 C 96 % 1014 hPa 0,0 l/m 42,6 km/h (6 Bft) SW45 215 0 min 6,14 klux 0 min 3,0 C -11,1 C
29.11.2011 16:00 3,3 C 95 % 1013 hPa 0,0 l/m 32,0 km/h (5 Bft) SW45 215 0 min 4,93 klux 0 min 2,6 C -9,3 C
29.11.2011 16:16 3,3 C 96 % 1013 hPa 0,0 l/m 36,9 km/h (5 Bft) SW67.5 235 0 min 2,79 klux 0 min 2,7 C -10,4 C
29.11.2011 16:31 3,3 C 96 % 1014 hPa 0,0 l/m 34,3 km/h (5 Bft) SW45 225 0 min 1,22 klux 0 min 2,7 C -9,9 C
29.11.2011 16:45 3,5 C 97 % 1013 hPa 0,0 l/m 34,6 km/h (5 Bft) SW45 225 0 min 460 lux 0 min 3,1 C -9,6 C
29.11.2011 17:00 3,7 C 97 % 1014 hPa 0,0 l/m 31,2 km/h (5 Bft) SW45 215 0 min 90 lux 0 min 3,3 C -8,5 C
29.11.2011 17:15 4,0 C 97 % 1014 hPa 0,0 l/m 32,8 km/h (5 Bft) SW67.5 215 0 min 12 lux 0 min 3,6 C -8,5 C
29.11.2011 17:30 4,3 C 97 % 1014 hPa 0,0 l/m 36,9 km/h (5 Bft) SW45 230 0 min 0 lux 0 min 3,9 C -9,0 C
29.11.2011 17:46 4,6 C 97 % 1014 hPa 0,0 l/m 38,2 km/h (5 Bft) SW45 220 0 min 0 lux 0 min 4,2 C -8,8 C
29.11.2011 18:01 4,8 C 97 % 1014 hPa 0,0 l/m 36,1 km/h (5 Bft) S-SW67.5 205 0 min 0 lux 0 min 4,4 C -8,1 C
29.11.2011 18:15 4,9 C 96 % 1014 hPa 0,0 l/m 36,3 km/h (5 Bft) SW45 220 0 min 0 lux 0 min 4,3 C -8,0 C
29.11.2011 18:30 4,9 C 96 % 1014 hPa 0,0 l/m 35,3 km/h (5 Bft) W-SW67.5 240 0 min 0 lux 0 min 4,3 C -7,8 C
29.11.2011 18:45 4,9 C 96 % 1014 hPa 0,0 l/m 35,5 km/h (5 Bft) SW45 220 0 min 0 lux 0 min 4,3 C -7,8 C
29.11.2011 19:00 5,1 C 96 % 1014 hPa 0,0 l/m 31,2 km/h (5 Bft) SW45 220 0 min 0 lux 0 min 4,5 C -6,5 C
29.11.2011 19:16 5,1 C 96 % 1014 hPa 0,0 l/m 38,8 km/h (5 Bft) SW45 230 0 min 0 lux 0 min 4,5 C -8,2 C
29.11.2011 19:31 5,2 C 96 % 1014 hPa 0,0 l/m 40,5 km/h (6 Bft) SW45 215 0 min 0 lux 0 min 4,6 C -8,3 C
29.11.2011 19:45 5,2 C 96 % 1014 hPa 0,0 l/m 34,3 km/h (5 Bft) SW22.5 220 0 min 0 lux 0 min 4,6 C -7,1 C
29.11.2011 20:00 5,2 C 95 % 1014 hPa 0,0 l/m 40,6 km/h (6 Bft) SW45 225 0 min 0 lux 0 min 4,5 C -8,3 C
29.11.2011 20:15 5,3 C 95 % 1014 hPa 0,0 l/m 36,5 km/h (5 Bft) W-SW45 245 0 min 0 lux 0 min 4,6 C -7,4 C
29.11.2011 20:30 5,4 C 95 % 1014 hPa 0,0 l/m 44,1 km/h (6 Bft) SW45 230 0 min 0 lux 0 min 4,7 C -8,6 C
29.11.2011 20:46 5,3 C 95 % 1014 hPa 0,0 l/m 42,8 km/h (6 Bft) SW45 225 0 min 0 lux 0 min 4,6 C -8,5 C
29.11.2011 21:01 5,4 C 95 % 1014 hPa 0,0 l/m 41,5 km/h (6 Bft) SW67.5 235 0 min 0 lux 0 min 4,7 C -8,2 C
29.11.2011 21:15 5,6 C 95 % 1014 hPa 0,0 l/m 37,2 km/h (5 Bft) SW45 225 0 min 0 lux 0 min 4,9 C -7,1 C
29.11.2011 21:31 5,6 C 95 % 1014 hPa 0,0 l/m 35,9 km/h (5 Bft) SW67.5 225 0 min 0 lux 0 min 4,9 C -6,9 C
29.11.2011 21:45 5,7 C 95 % 1014 hPa 0,0 l/m 48,6 km/h (6 Bft) SW22.5 225 0 min 0 lux 0 min 5,0 C -8,7 C
29.11.2011 22:00 6,0 C 95 % 1014 hPa 0,0 l/m 41,7 km/h (6 Bft) SW67.5 215 0 min 0 lux 0 min 5,3 C -7,3 C
29.11.2011 22:15 6,0 C 95 % 1014 hPa 0,0 l/m 42,1 km/h (6 Bft) SW45 220 0 min 0 lux 0 min 5,3 C -7,4 C
29.11.2011 22:30 6,0 C 96 % 1015 hPa 0,0 l/m 38,1 km/h (5 Bft) S-SW45 210 0 min 0 lux 0 min 5,4 C -6,7 C
29.11.2011 22:46 6,0 C 96 % 1015 hPa 0,0 l/m 33,4 km/h (5 Bft) SW45 225 0 min 0 lux 0 min 5,4 C -5,8 C
29.11.2011 23:01 6,0 C 97 % 1015 hPa 0,0 l/m 44,4 km/h (6 Bft) SW45 215 0 min 0 lux 0 min 5,6 C -7,7 C
29.11.2011 23:15 6,0 C 97 % 1015 hPa 0,0 l/m 36,9 km/h (5 Bft) SW45 225 0 min 0 lux 0 min 5,6 C -6,5 C
29.11.2011 23:31 6,0 C 98 % 1015 hPa 0,0 l/m 35,5 km/h (5 Bft) SW45 220 0 min 0 lux 0 min 5,7 C -6,2 C
29.11.2011 23:46 6,0 C 98 % 1015 hPa 0,6 l/m 35,8 km/h (5 Bft) SW45 215 0 min 0 lux 15 min 5,7 C -6,3 C
29.11.2011 23:54 6,1 C 99 % 1015 hPa 0,3 l/m 32,4 km/h (5 Bft) SW45 230 0 min 0 lux 8 min 6,0 C -5,4 C
_ Min-Zeit 00:00 14:46 16:00 - 07:00 - - - - - 00:00 15:45
Minimum _ -1,2 C 95 % 1013 hPa - 0,1 km/h (0 Bft) - - - - - -1,3 C -11,1 C
_ Max-Zeit 23:54 00:00 00:00 23:46 21:45 - - 00:00 14:30 23:46 23:54 07:00
Maximum _ 6,1 C 99 % 1020 hPa 0,6 l/m 48,6 km/h
SW (6 Bft)
- - 0 min 34,4 klux 15 min 6,0 C 1,1 C
Durchschnitt _ 2,9 C 98 % 1016 hPa #0,9 l/m 25,0 km/h (4 Bft) SW - #0 min. 4,17 klux #23 min. 2,6 C -6,6 C